createdAt,value
2018-08-07T00:00:08.391Z,5.90
2018-08-07T00:01:08.390Z,5.30
2018-08-07T00:02:08.380Z,5.20
2018-08-07T00:03:08.355Z,5.90
2018-08-07T00:04:08.350Z,5.80
2018-08-07T00:05:08.336Z,5.80
2018-08-07T00:06:08.326Z,5.50
2018-08-07T00:07:08.395Z,5.60
2018-08-07T00:08:08.309Z,5.20
2018-08-07T00:09:08.292Z,5.50
2018-08-07T00:10:08.276Z,5.10
2018-08-07T00:11:08.264Z,5.20
2018-08-07T00:12:08.269Z,5.40
2018-08-07T00:13:08.243Z,5.30
2018-08-07T00:14:08.232Z,4.80
2018-08-07T00:15:08.226Z,5.70
2018-08-07T00:16:08.216Z,5.10
2018-08-07T00:17:08.198Z,4.60
2018-08-07T00:18:08.186Z,5.30
2018-08-07T00:19:08.179Z,5.00
2018-08-07T00:20:08.164Z,5.10
2018-08-07T00:21:08.154Z,5.50
2018-08-07T00:22:08.143Z,5.60
2018-08-07T00:23:08.131Z,4.90
2018-08-07T00:24:08.120Z,5.20
2018-08-07T00:25:08.108Z,5.30
2018-08-07T00:26:08.095Z,5.10
2018-08-07T00:27:08.088Z,5.20
2018-08-07T00:28:08.082Z,5.10
2018-08-07T00:29:08.061Z,5.20
2018-08-07T00:30:08.062Z,4.80
2018-08-07T00:31:08.043Z,5.50
2018-08-07T00:32:08.029Z,4.90
2018-08-07T00:33:08.024Z,5.10
2018-08-07T00:34:08.007Z,5.00
2018-08-07T00:35:07.994Z,5.20
2018-08-07T00:36:07.983Z,5.20
2018-08-07T00:37:07.972Z,4.80
2018-08-07T00:38:07.957Z,5.00
2018-08-07T00:39:07.947Z,5.10
2018-08-07T00:40:07.942Z,4.80
2018-08-07T00:41:07.939Z,5.20
2018-08-07T00:42:07.918Z,5.30
2018-08-07T00:43:07.906Z,5.10
2018-08-07T00:44:07.889Z,5.00
2018-08-07T00:45:07.878Z,5.40
2018-08-07T00:46:07.867Z,4.90
2018-08-07T00:47:07.857Z,5.00
2018-08-07T00:48:07.844Z,5.20
2018-08-07T00:49:07.836Z,5.40
2018-08-07T00:50:07.873Z,5.40
2018-08-07T00:51:07.810Z,5.50
2018-08-07T00:52:07.955Z,5.30
2018-08-07T00:53:07.785Z,5.10
2018-08-07T00:54:07.775Z,5.50
2018-08-07T00:55:07.762Z,5.10
2018-08-07T00:56:07.749Z,5.30
2018-08-07T00:57:07.739Z,5.20
2018-08-07T00:58:07.729Z,5.40
2018-08-07T00:59:07.718Z,5.20
2018-08-07T01:00:07.714Z,5.60
2018-08-07T01:01:07.693Z,5.00
2018-08-07T01:02:07.683Z,4.80
2018-08-07T01:03:07.671Z,5.00
2018-08-07T01:04:07.658Z,5.00
2018-08-07T01:05:07.649Z,5.10
2018-08-07T01:06:07.636Z,5.30
2018-08-07T01:07:07.623Z,5.00
2018-08-07T01:08:07.611Z,5.20
2018-08-07T01:09:07.603Z,5.30
2018-08-07T01:10:07.596Z,5.70
2018-08-07T01:11:07.578Z,5.40
2018-08-07T01:12:07.565Z,5.50
2018-08-07T01:13:07.556Z,5.10
2018-08-07T01:14:07.546Z,5.30
2018-08-07T01:15:07.529Z,6.00
2018-08-07T01:16:07.522Z,5.90
2018-08-07T01:17:07.509Z,6.00
2018-08-07T01:18:07.496Z,5.30
2018-08-07T01:19:07.495Z,5.60
2018-08-07T01:20:07.474Z,5.10
2018-08-07T01:21:07.458Z,5.30
2018-08-07T01:22:07.454Z,5.10
2018-08-07T01:23:07.443Z,5.00
2018-08-07T01:24:07.499Z,5.10
2018-08-07T01:25:07.414Z,4.80
2018-08-07T01:26:07.401Z,5.00
2018-08-07T01:27:07.474Z,5.50
2018-08-07T01:28:07.380Z,4.90
2018-08-07T01:29:07.366Z,4.80
2018-08-07T01:30:07.354Z,4.90
2018-08-07T01:31:07.343Z,5.10
2018-08-07T01:32:07.334Z,5.30
2018-08-07T01:33:07.326Z,5.20
2018-08-07T01:34:07.312Z,5.10
2018-08-07T01:35:07.296Z,4.90
2018-08-07T01:36:07.286Z,4.90
2018-08-07T01:37:07.270Z,4.90
2018-08-07T01:38:07.264Z,5.10
2018-08-07T01:39:07.248Z,4.60
2018-08-07T01:40:07.237Z,5.30
2018-08-07T01:41:07.229Z,5.20
2018-08-07T01:42:07.221Z,5.00
2018-08-07T01:43:07.205Z,5.00
2018-08-07T01:44:07.193Z,5.10
2018-08-07T01:45:07.177Z,4.70
2018-08-07T01:46:07.173Z,5.20
2018-08-07T01:47:07.151Z,5.10
2018-08-07T01:48:07.142Z,5.40
2018-08-07T01:49:07.132Z,5.30
2018-08-07T01:50:07.117Z,5.30
2018-08-07T01:51:07.206Z,5.00
2018-08-07T01:52:07.106Z,5.40
2018-08-07T01:53:07.081Z,5.30
2018-08-07T01:54:07.069Z,5.40
2018-08-07T01:55:07.058Z,5.10
2018-08-07T01:56:07.050Z,5.70
2018-08-07T01:57:07.034Z,5.00
2018-08-07T01:58:07.023Z,4.90
2018-08-07T01:59:07.010Z,5.10
2018-08-07T02:00:06.999Z,6.00
2018-08-07T02:01:06.985Z,5.30
2018-08-07T02:02:06.975Z,6.00
2018-08-07T02:03:06.962Z,5.00
2018-08-07T02:04:06.949Z,5.30
2018-08-07T02:05:06.939Z,5.40
2018-08-07T02:06:06.931Z,5.30
2018-08-07T02:07:06.912Z,5.30
2018-08-07T02:08:06.900Z,5.50
2018-08-07T02:09:06.890Z,5.30
2018-08-07T02:10:06.880Z,5.80
2018-08-07T02:11:06.864Z,5.60
2018-08-07T02:12:06.854Z,6.00
2018-08-07T02:13:06.839Z,5.30
2018-08-07T02:14:06.830Z,5.20
2018-08-07T02:15:06.824Z,5.90
2018-08-07T02:16:06.807Z,5.60
2018-08-07T02:17:06.798Z,5.80
2018-08-07T02:18:06.785Z,5.60
2018-08-07T02:19:06.769Z,5.50
2018-08-07T02:20:06.757Z,5.60
2018-08-07T02:21:06.743Z,6.00
2018-08-07T02:22:06.730Z,5.80
2018-08-07T02:23:06.725Z,6.00
2018-08-07T02:24:06.715Z,5.80
2018-08-07T02:25:06.697Z,5.40
2018-08-07T02:26:06.681Z,5.70
2018-08-07T02:27:06.670Z,5.70
2018-08-07T02:28:06.657Z,5.40
2018-08-07T02:29:06.648Z,5.40
2018-08-07T02:30:06.635Z,5.20
2018-08-07T02:31:06.673Z,5.50
2018-08-07T02:32:06.610Z,5.60
2018-08-07T02:33:06.604Z,5.50
2018-08-07T02:34:06.584Z,5.40
2018-08-07T02:35:06.576Z,5.40
2018-08-07T02:36:06.562Z,5.50
2018-08-07T02:37:06.548Z,5.70
2018-08-07T02:38:06.535Z,5.70
2018-08-07T02:39:06.521Z,5.60
2018-08-07T02:40:06.513Z,5.50
2018-08-07T02:41:06.500Z,5.90
2018-08-07T02:42:06.487Z,5.90
2018-08-07T02:43:06.472Z,5.70
2018-08-07T02:44:06.472Z,5.30
2018-08-07T02:45:06.450Z,5.30
2018-08-07T02:46:06.441Z,5.50
2018-08-07T02:47:06.525Z,5.70
2018-08-07T02:48:06.430Z,5.30
2018-08-07T02:49:06.401Z,5.60
2018-08-07T02:50:06.391Z,5.30
2018-08-07T02:51:06.376Z,5.20
2018-08-07T02:52:06.362Z,5.40
2018-08-07T02:53:06.354Z,5.50
2018-08-07T02:54:06.337Z,5.60
2018-08-07T02:55:06.326Z,5.60
2018-08-07T02:56:06.313Z,5.30
2018-08-07T02:57:06.301Z,5.40
2018-08-07T02:58:06.290Z,5.50
2018-08-07T02:59:06.277Z,5.70
2018-08-07T03:00:06.268Z,5.30
2018-08-07T03:01:06.261Z,5.20
2018-08-07T03:02:06.241Z,5.60
2018-08-07T03:03:06.229Z,5.40
2018-08-07T03:04:06.217Z,5.30
2018-08-07T03:05:06.203Z,5.60
2018-08-07T03:06:06.274Z,5.60
2018-08-07T03:07:06.181Z,5.30
2018-08-07T03:08:06.168Z,5.40
2018-08-07T03:09:06.156Z,5.50
2018-08-07T03:10:06.143Z,5.70
2018-08-07T03:11:06.141Z,5.40
2018-08-07T03:12:06.117Z,5.50
2018-08-07T03:13:06.108Z,5.30
2018-08-07T03:14:06.100Z,5.40
2018-08-07T03:15:06.081Z,5.10
2018-08-07T03:16:06.069Z,5.10
2018-08-07T03:17:06.058Z,5.90
2018-08-07T03:18:06.044Z,5.60
2018-08-07T03:19:06.041Z,5.30
2018-08-07T03:20:06.022Z,5.60
2018-08-07T03:21:06.009Z,5.30
2018-08-07T03:22:06.003Z,5.40
2018-08-07T03:23:05.980Z,5.80
2018-08-07T03:24:05.970Z,5.50
2018-08-07T03:25:05.960Z,5.20
2018-08-07T03:26:05.944Z,5.70
2018-08-07T03:27:05.932Z,5.20
2018-08-07T03:28:05.919Z,5.70
2018-08-07T03:29:05.909Z,5.60
2018-08-07T03:30:05.894Z,5.40
2018-08-07T03:31:05.880Z,5.50
2018-08-07T03:32:05.868Z,6.00
2018-08-07T03:33:05.857Z,5.20
2018-08-07T03:34:05.847Z,6.00
2018-08-07T03:35:05.834Z,5.70
2018-08-07T03:36:05.828Z,5.40
2018-08-07T03:37:05.807Z,5.80
2018-08-07T03:38:05.795Z,5.60
2018-08-07T03:39:05.781Z,5.90
2018-08-07T03:40:05.769Z,5.40
2018-08-07T03:41:05.758Z,5.30
2018-08-07T03:42:05.747Z,5.20
2018-08-07T03:43:05.733Z,5.00
2018-08-07T03:44:05.732Z,5.60
2018-08-07T03:45:05.707Z,4.90
2018-08-07T03:46:05.696Z,5.30
2018-08-07T03:47:05.682Z,5.30
2018-08-07T03:48:05.672Z,5.70
2018-08-07T03:49:05.658Z,5.20
2018-08-07T03:50:05.645Z,4.80
2018-08-07T03:51:05.634Z,5.50
2018-08-07T03:52:05.618Z,6.00
2018-08-07T03:53:05.613Z,5.00
2018-08-07T03:54:05.598Z,5.60
2018-08-07T03:55:05.581Z,5.30
2018-08-07T03:56:05.572Z,5.40
2018-08-07T03:57:05.567Z,5.20
2018-08-07T03:58:05.543Z,5.20
2018-08-07T03:59:05.554Z,5.30
2018-08-07T04:00:05.523Z,5.20
2018-08-07T04:01:05.511Z,5.10
2018-08-07T04:02:05.493Z,5.50
2018-08-07T04:03:05.481Z,5.00
2018-08-07T04:04:05.471Z,5.20
2018-08-07T04:05:05.455Z,5.30
2018-08-07T04:06:05.441Z,5.20
2018-08-07T04:07:05.431Z,5.20
2018-08-07T04:08:05.424Z,5.30
2018-08-07T04:09:05.407Z,5.00
2018-08-07T04:10:05.496Z,4.80
2018-08-07T04:11:05.380Z,5.90
2018-08-07T04:12:05.365Z,5.00
2018-08-07T04:13:05.352Z,5.10
2018-08-07T04:14:05.341Z,4.90
2018-08-07T04:15:05.328Z,5.00
2018-08-07T04:16:05.317Z,5.00
2018-08-07T04:17:05.304Z,4.90
2018-08-07T04:18:05.290Z,5.30
2018-08-07T04:19:05.277Z,5.20
2018-08-07T04:20:05.264Z,5.20
2018-08-07T04:21:05.259Z,4.90
2018-08-07T04:22:05.238Z,5.30
2018-08-07T04:23:05.240Z,5.20
2018-08-07T04:24:05.214Z,5.20
2018-08-07T04:25:05.205Z,4.80
2018-08-07T04:26:05.312Z,5.10
2018-08-07T04:27:05.176Z,5.00
2018-08-07T04:28:05.163Z,5.20
2018-08-07T04:29:05.150Z,5.10
2018-08-07T04:30:05.138Z,5.80
2018-08-07T04:31:05.126Z,5.10
2018-08-07T04:32:05.112Z,5.10
2018-08-07T04:33:05.100Z,5.10
2018-08-07T04:34:05.096Z,4.80
2018-08-07T04:35:05.096Z,5.60
2018-08-07T04:36:05.070Z,5.30
2018-08-07T04:37:05.066Z,5.20
2018-08-07T04:38:05.037Z,5.00
2018-08-07T04:39:05.025Z,5.10
2018-08-07T04:40:05.012Z,5.20
2018-08-07T04:41:04.999Z,5.50
2018-08-07T04:42:05.134Z,5.10
2018-08-07T04:43:04.974Z,4.80
2018-08-07T04:44:04.961Z,5.80
2018-08-07T04:45:04.999Z,4.70
2018-08-07T04:46:04.935Z,5.20
2018-08-07T04:47:04.922Z,5.00
2018-08-07T04:48:04.919Z,4.80
2018-08-07T04:49:04.901Z,4.70
2018-08-07T04:50:04.885Z,4.10
2018-08-07T04:51:04.872Z,4.80
2018-08-07T04:52:04.863Z,4.50
2018-08-07T04:53:04.850Z,4.70
2018-08-07T04:54:04.839Z,4.60
2018-08-07T04:55:04.832Z,5.10
2018-08-07T04:56:04.815Z,4.70
2018-08-07T04:57:04.807Z,4.60
2018-08-07T04:58:04.819Z,4.80
2018-08-07T04:59:04.784Z,4.60
2018-08-07T05:00:04.759Z,4.60
2018-08-07T05:01:04.750Z,4.80
2018-08-07T05:02:04.740Z,5.30
2018-08-07T05:03:04.720Z,5.10
2018-08-07T05:04:04.709Z,4.70
2018-08-07T05:05:04.698Z,5.40
2018-08-07T05:06:04.752Z,5.10
2018-08-07T05:07:04.674Z,5.40
2018-08-07T05:08:04.659Z,4.80
2018-08-07T05:09:04.648Z,5.30
2018-08-07T05:10:04.633Z,4.60
2018-08-07T05:11:04.645Z,5.30
2018-08-07T05:12:04.613Z,5.00
2018-08-07T05:13:04.598Z,4.60
2018-08-07T05:14:04.585Z,4.80
2018-08-07T05:15:04.572Z,4.60
2018-08-07T05:16:04.561Z,5.30
2018-08-07T05:17:04.553Z,5.00
2018-08-07T05:18:04.534Z,5.10
2018-08-07T05:19:04.522Z,5.00
2018-08-07T05:20:04.520Z,4.40
2018-08-07T05:21:04.541Z,4.80
2018-08-07T05:22:04.484Z,5.10
2018-08-07T05:23:04.472Z,5.30
2018-08-07T05:24:04.460Z,4.50
2018-08-07T05:25:04.501Z,4.50
2018-08-07T05:26:04.436Z,4.90
2018-08-07T05:27:04.422Z,5.00
2018-08-07T05:28:04.411Z,4.70
2018-08-07T05:29:04.400Z,4.70
2018-08-07T05:30:04.386Z,4.60
2018-08-07T05:31:04.380Z,4.80
2018-08-07T05:32:04.362Z,4.40
2018-08-07T05:33:04.349Z,4.70
2018-08-07T05:34:04.338Z,4.50
2018-08-07T05:35:04.325Z,4.40
2018-08-07T05:36:04.314Z,4.40
2018-08-07T05:37:04.302Z,4.70
2018-08-07T05:38:04.300Z,5.30
2018-08-07T05:39:04.279Z,4.60
2018-08-07T05:40:04.273Z,4.50
2018-08-07T05:41:04.403Z,4.60
2018-08-07T05:42:04.239Z,4.90
2018-08-07T05:43:04.228Z,4.40
2018-08-07T05:44:04.316Z,4.30
2018-08-07T05:45:04.205Z,4.40
2018-08-07T05:46:04.206Z,4.30
2018-08-07T05:47:04.184Z,4.70
2018-08-07T05:48:04.174Z,4.30
2018-08-07T05:49:04.163Z,4.50
2018-08-07T05:50:04.234Z,4.10
2018-08-07T05:51:04.511Z,4.20
2018-08-07T05:52:04.152Z,3.90
2018-08-07T05:53:04.149Z,4.80
2018-08-07T05:54:04.115Z,4.30
2018-08-07T05:55:04.134Z,4.10
2018-08-07T05:56:04.098Z,4.30
2018-08-07T05:57:04.089Z,4.50
2018-08-07T05:58:04.235Z,4.40
2018-08-07T05:59:04.075Z,4.30
2018-08-07T06:00:04.069Z,4.10
2018-08-07T06:01:04.063Z,3.80
2018-08-07T06:02:04.050Z,4.30
2018-08-07T06:03:04.046Z,4.20
2018-08-07T06:04:04.039Z,4.60
2018-08-07T06:05:04.238Z,4.50
2018-08-07T06:06:48.006Z,4.60
2018-08-07T06:09:17.111Z,4.00
2018-08-07T06:10:17.108Z,3.80
2018-08-07T06:11:17.111Z,4.30
2018-08-07T06:12:17.099Z,4.10
2018-08-07T06:13:17.097Z,4.40
2018-08-07T06:14:17.088Z,4.60
2018-08-07T06:15:17.084Z,4.40
2018-08-07T06:16:17.077Z,3.90
2018-08-07T06:17:17.123Z,4.10
2018-08-07T06:18:17.069Z,4.10
2018-08-07T06:19:17.089Z,4.30
2018-08-07T06:20:17.060Z,4.20
2018-08-07T06:21:17.072Z,4.00
2018-08-07T06:22:20.686Z,3.80
2018-08-07T06:23:17.048Z,4.10
2018-08-07T06:24:17.044Z,4.20
2018-08-07T06:25:17.044Z,4.10
2018-08-07T06:26:17.043Z,3.80
2018-08-07T06:27:17.035Z,3.70
2018-08-07T06:28:17.040Z,4.20
2018-08-07T06:29:17.029Z,3.90
2018-08-07T06:30:17.036Z,3.90
2018-08-07T06:31:17.069Z,4.50
2018-08-07T06:32:17.031Z,4.20
2018-08-07T06:33:17.014Z,4.00
2018-08-07T06:34:17.019Z,4.40
2018-08-07T06:35:17.009Z,4.10
2018-08-07T06:36:17.006Z,4.10
2018-08-07T06:37:17.018Z,4.10
2018-08-07T06:38:17.006Z,4.40
2018-08-07T06:39:16.995Z,4.30
2018-08-07T06:40:16.992Z,4.20
2018-08-07T06:41:16.991Z,4.20
2018-08-07T06:42:19.606Z,4.40
2018-08-07T06:43:17.016Z,4.00
2018-08-07T06:44:16.984Z,4.20
2018-08-07T06:45:16.976Z,4.30
2018-08-07T06:46:16.975Z,4.00
2018-08-07T06:47:16.968Z,4.00
2018-08-07T06:48:16.967Z,3.80
2018-08-07T06:49:16.965Z,4.20
2018-08-07T06:50:17.000Z,4.00
2018-08-07T06:51:16.967Z,4.30
2018-08-07T06:52:16.958Z,4.10
2018-08-07T06:53:16.961Z,4.10
2018-08-07T06:54:16.954Z,4.70
2018-08-07T06:55:20.180Z,4.40
2018-08-07T06:56:16.943Z,4.00
2018-08-07T06:57:16.942Z,4.00
2018-08-07T06:58:16.938Z,4.20
2018-08-07T06:59:16.942Z,4.10
2018-08-07T07:00:16.935Z,4.20
2018-08-07T07:01:16.927Z,4.30
2018-08-07T07:02:16.923Z,4.40
2018-08-07T07:03:16.916Z,4.50
2018-08-07T07:04:16.913Z,4.30
2018-08-07T07:05:16.910Z,4.30
2018-08-07T07:06:16.906Z,4.50
2018-08-07T07:07:16.900Z,4.50
2018-08-07T07:08:16.908Z,4.20
2018-08-07T07:09:16.911Z,4.10
2018-08-07T07:10:16.883Z,4.20
2018-08-07T07:11:16.879Z,4.20
2018-08-07T07:12:16.877Z,4.10
2018-08-07T07:13:19.690Z,3.90
2018-08-07T07:14:16.870Z,4.20
2018-08-07T07:15:17.785Z,4.10
2018-08-07T07:16:16.862Z,4.40
2018-08-07T07:17:20.339Z,4.40
2018-08-07T07:19:55.618Z,4.10
2018-08-07T07:20:55.676Z,4.30
2018-08-07T07:21:55.621Z,4.40
2018-08-07T07:22:55.598Z,4.10
2018-08-07T07:23:55.596Z,3.90
2018-08-07T07:24:55.584Z,4.10
2018-08-07T07:26:55.570Z,3.90
2018-08-07T07:27:55.567Z,3.80
2018-08-07T07:28:55.567Z,4.10
2018-08-07T07:29:55.564Z,4.20
2018-08-07T07:30:55.552Z,3.90
2018-08-07T07:31:55.679Z,3.90
2018-08-07T07:32:55.541Z,4.10
2018-08-07T07:33:55.529Z,4.30
2018-08-07T07:34:55.524Z,4.10
2018-08-07T07:35:55.515Z,3.80
2018-08-07T07:36:55.508Z,4.30
2018-08-07T07:37:55.511Z,4.10
2018-08-07T07:38:55.497Z,3.80
2018-08-07T07:39:55.493Z,4.40
2018-08-07T07:40:55.487Z,4.10
2018-08-07T07:42:28.694Z,3.70
2018-08-07T07:42:55.476Z,4.10
2018-08-07T07:43:55.471Z,4.40
2018-08-07T07:44:55.465Z,4.10
2018-08-07T07:45:55.458Z,4.10
2018-08-07T07:46:55.582Z,4.60
2018-08-07T07:47:55.451Z,4.20
2018-08-07T07:48:55.447Z,4.30
2018-08-07T07:49:55.435Z,4.00
2018-08-07T07:50:55.479Z,4.00
2018-08-07T07:51:55.424Z,4.60
2018-08-07T07:52:55.422Z,4.40
2018-08-07T07:53:55.436Z,4.20
2018-08-07T07:54:55.407Z,4.10
2018-08-07T07:55:55.410Z,4.60
2018-08-07T07:56:55.393Z,4.30
2018-08-07T07:57:55.390Z,4.20
2018-08-07T07:58:55.392Z,4.40
2018-08-07T07:59:55.378Z,4.40
2018-08-07T08:00:55.381Z,4.60
2018-08-07T08:01:55.366Z,4.30
2018-08-07T08:02:55.359Z,4.40
2018-08-07T08:03:55.361Z,4.50
2018-08-07T08:04:55.349Z,5.10
2018-08-07T08:05:55.437Z,4.90
2018-08-07T08:06:55.342Z,4.50
2018-08-07T08:07:55.337Z,4.50
2018-08-07T08:08:55.323Z,4.30
2018-08-07T08:09:55.318Z,4.10
2018-08-07T08:10:55.320Z,4.40
2018-08-07T08:11:55.307Z,4.50
2018-08-07T08:12:55.307Z,4.20
2018-08-07T08:13:55.294Z,4.30
2018-08-07T08:14:55.289Z,4.30
2018-08-07T08:15:55.281Z,4.60
2018-08-07T08:16:55.328Z,4.30
2018-08-07T08:17:55.294Z,4.50
2018-08-07T08:18:55.273Z,4.70
2018-08-07T08:19:55.268Z,4.10
2018-08-07T08:20:55.253Z,4.20
2018-08-07T08:21:57.869Z,4.40
2018-08-07T08:22:57.864Z,5.10
2018-08-07T08:23:55.233Z,4.00
2018-08-07T08:24:55.228Z,4.30
2018-08-07T08:26:28.430Z,4.40
2018-08-07T08:30:15.915Z,4.60
2018-08-07T08:31:15.913Z,4.90
2018-08-07T08:32:15.920Z,4.10
2018-08-07T08:33:15.898Z,4.20
2018-08-07T08:34:15.888Z,4.10
2018-08-07T08:35:15.950Z,4.40
2018-08-07T08:36:15.873Z,5.00
2018-08-07T08:37:15.865Z,4.60
2018-08-07T08:38:15.861Z,4.40
2018-08-07T08:39:15.855Z,4.60
2018-08-07T08:40:15.847Z,4.10
2018-08-07T08:41:15.844Z,3.90
2018-08-07T08:42:15.834Z,4.20
2018-08-07T08:43:15.889Z,4.10
2018-08-07T08:44:15.824Z,4.00
2018-08-07T08:45:15.814Z,3.80
2018-08-07T08:46:15.813Z,3.90
2018-08-07T08:47:15.805Z,4.20
2018-08-07T08:48:15.825Z,4.40
2018-08-07T08:49:15.789Z,4.10
2018-08-07T08:50:15.792Z,4.40
2018-08-07T08:51:15.777Z,4.10
2018-08-07T08:53:40.378Z,4.30
2018-08-07T08:54:40.367Z,3.80
2018-08-07T08:55:40.358Z,3.90
2018-08-07T08:56:40.352Z,4.30
2018-08-07T08:57:40.346Z,4.20
2018-08-07T08:58:40.340Z,4.10
2018-08-07T08:59:40.333Z,4.00
2018-08-07T09:00:40.327Z,4.00
2018-08-07T09:01:40.318Z,4.10
2018-08-07T09:02:40.312Z,4.10
2018-08-07T09:03:40.307Z,3.90
2018-08-07T09:04:40.301Z,4.30
2018-08-07T09:05:40.301Z,4.20
2018-08-07T09:06:40.290Z,4.00
2018-08-07T09:07:40.281Z,4.50
2018-08-07T09:08:40.275Z,4.00
2018-08-07T09:09:40.269Z,4.10
2018-08-07T09:10:40.455Z,4.60
2018-08-07T09:11:40.256Z,3.90
2018-08-07T09:12:40.253Z,3.60
2018-08-07T09:13:40.254Z,3.40
2018-08-07T09:14:40.253Z,3.80
2018-08-07T09:15:40.240Z,3.60
2018-08-07T09:16:40.229Z,3.50
2018-08-07T09:17:40.228Z,3.60
2018-08-07T09:18:40.236Z,3.60
2018-08-07T09:19:40.277Z,3.50
2018-08-07T09:20:40.212Z,3.50
2018-08-07T09:21:40.217Z,4.00
2018-08-07T09:22:40.209Z,3.60
2018-08-07T09:23:40.224Z,4.00
2018-08-07T09:24:40.198Z,4.00
2018-08-07T09:25:40.290Z,3.50
2018-08-07T09:26:43.214Z,3.60
2018-08-07T09:27:40.329Z,3.40
2018-08-07T09:28:40.180Z,3.80
2018-08-07T09:29:40.175Z,3.40
2018-08-07T09:30:40.172Z,3.70
2018-08-07T09:31:40.169Z,3.40
2018-08-07T09:32:40.165Z,3.70
2018-08-07T09:33:40.167Z,3.50
2018-08-07T09:34:40.159Z,3.50
2018-08-07T09:36:13.370Z,3.50
2018-08-07T09:36:40.153Z,3.60
2018-08-07T09:37:40.154Z,3.30
2018-08-07T09:38:40.153Z,3.20
2018-08-07T09:39:40.190Z,3.40
2018-08-07T09:40:40.165Z,3.60
2018-08-07T09:41:40.153Z,3.10
2018-08-07T09:42:40.139Z,3.30
2018-08-07T09:43:40.198Z,3.40
2018-08-07T09:44:40.137Z,3.50
2018-08-07T09:45:40.134Z,3.60
2018-08-07T09:46:40.269Z,3.50
2018-08-07T09:47:40.140Z,3.60
2018-08-07T09:48:40.132Z,3.30
2018-08-07T09:49:40.807Z,3.50
2018-08-07T09:50:40.147Z,3.60
2018-08-07T09:51:40.133Z,3.10
2018-08-07T09:52:40.123Z,3.10
2018-08-07T09:53:40.128Z,3.50
2018-08-07T09:54:40.119Z,3.20
2018-08-07T09:55:40.119Z,3.40
2018-08-07T09:56:40.269Z,3.10
2018-08-07T09:57:40.121Z,3.10
2018-08-07T09:58:40.268Z,3.10
2018-08-07T09:59:40.122Z,3.00
2018-08-07T10:00:40.135Z,3.20
2018-08-07T10:01:40.144Z,3.20
2018-08-07T10:02:40.132Z,3.10
2018-08-07T10:03:40.132Z,3.30
2018-08-07T10:04:40.147Z,3.00
2018-08-07T10:05:40.142Z,3.30
2018-08-07T10:06:40.145Z,3.20
2018-08-07T10:07:40.148Z,3.30
2018-08-07T10:08:40.152Z,3.10
2018-08-07T10:09:40.158Z,3.10
2018-08-07T10:10:40.162Z,3.10
2018-08-07T10:11:40.170Z,3.10
2018-08-07T10:12:40.173Z,3.10
2018-08-07T10:13:40.178Z,3.20
2018-08-07T10:14:40.186Z,3.30
2018-08-07T10:15:40.194Z,3.10
2018-08-07T10:16:40.197Z,2.80
2018-08-07T10:17:40.216Z,3.10
2018-08-07T10:18:40.215Z,3.10
2018-08-07T10:19:40.218Z,3.00
2018-08-07T10:20:40.227Z,3.20
2018-08-07T10:21:40.348Z,3.40
2018-08-07T10:22:40.239Z,3.50
2018-08-07T10:23:40.261Z,3.60
2018-08-07T10:24:40.256Z,3.70
2018-08-07T10:25:40.268Z,3.20
2018-08-07T10:26:40.268Z,3.00
2018-08-07T10:27:40.275Z,3.00
2018-08-07T10:28:40.285Z,2.90
2018-08-07T10:29:40.294Z,3.00
2018-08-07T10:30:40.347Z,3.10
2018-08-07T10:31:40.307Z,3.10
2018-08-07T10:32:40.316Z,3.10
2018-08-07T10:33:40.328Z,3.20
2018-08-07T10:34:40.488Z,3.30
2018-08-07T10:35:40.342Z,3.10
2018-08-07T10:36:40.349Z,3.10
2018-08-07T10:37:40.358Z,3.40
2018-08-07T10:38:40.368Z,3.00
2018-08-07T10:39:40.377Z,3.20
2018-08-07T10:40:40.471Z,3.40
2018-08-07T10:41:40.405Z,3.20
2018-08-07T10:42:40.411Z,3.30
2018-08-07T10:43:40.574Z,3.50
2018-08-07T10:44:40.436Z,3.20
2018-08-07T10:45:40.429Z,3.10
2018-08-07T10:46:40.440Z,3.20
2018-08-07T10:47:40.491Z,3.10
2018-08-07T10:48:40.467Z,3.10
2018-08-07T10:49:40.475Z,3.20
2018-08-07T10:50:40.530Z,3.00
2018-08-07T10:51:40.492Z,3.20
2018-08-07T10:52:40.494Z,3.20
2018-08-07T10:53:40.503Z,3.60
2018-08-07T10:54:40.522Z,2.90
2018-08-07T10:55:40.524Z,3.10
2018-08-07T10:56:40.582Z,3.00
2018-08-07T10:57:40.549Z,2.90
2018-08-07T10:58:40.553Z,3.00
2018-08-07T10:59:40.562Z,2.90
2018-08-07T11:00:40.574Z,3.10
2018-08-07T11:01:40.584Z,2.80
2018-08-07T11:02:40.622Z,3.00
2018-08-07T11:03:40.623Z,3.10
2018-08-07T11:04:40.611Z,2.80
2018-08-07T11:05:40.670Z,3.10
2018-08-07T11:06:40.634Z,3.00
2018-08-07T11:07:40.642Z,3.30
2018-08-07T11:08:40.648Z,3.10
2018-08-07T11:09:40.659Z,3.10
2018-08-07T11:10:40.670Z,3.30
2018-08-07T11:11:40.680Z,3.10
2018-08-07T11:12:40.757Z,3.10
2018-08-07T11:13:40.728Z,3.00
2018-08-07T11:14:40.717Z,3.00
2018-08-07T11:15:40.719Z,2.80
2018-08-07T11:16:40.729Z,3.30
2018-08-07T11:17:40.741Z,3.00
2018-08-07T11:18:40.760Z,2.90
2018-08-07T11:19:40.762Z,3.10
2018-08-07T11:20:40.763Z,3.00
2018-08-07T11:21:40.777Z,3.20
2018-08-07T11:22:40.787Z,2.90
2018-08-07T11:23:40.790Z,3.20
2018-08-07T11:24:40.857Z,3.20
2018-08-07T11:25:40.807Z,2.90
2018-08-07T11:26:40.818Z,3.40
2018-08-07T11:27:40.827Z,3.20
2018-08-07T11:28:40.847Z,3.30
2018-08-07T11:29:40.847Z,3.10
2018-08-07T11:30:40.855Z,3.40
2018-08-07T11:31:40.866Z,3.30
2018-08-07T11:32:40.875Z,3.30
2018-08-07T11:33:40.881Z,3.40
2018-08-07T11:34:40.894Z,3.20
2018-08-07T11:35:40.910Z,3.20
2018-08-07T11:36:40.911Z,3.30
2018-08-07T11:37:40.913Z,3.50
2018-08-07T11:38:40.928Z,3.30
2018-08-07T11:39:40.929Z,3.30
2018-08-07T11:40:40.933Z,3.10
2018-08-07T11:41:40.941Z,3.30
2018-08-07T11:42:40.952Z,3.70
2018-08-07T11:43:40.959Z,3.30
2018-08-07T11:44:40.972Z,3.40
2018-08-07T11:45:40.972Z,3.20
2018-08-07T11:46:40.983Z,3.40
2018-08-07T11:47:40.998Z,3.20
2018-08-07T11:48:40.993Z,3.30
2018-08-07T11:49:41.002Z,3.30
2018-08-07T11:50:41.063Z,3.20
2018-08-07T11:51:41.030Z,3.00
2018-08-07T11:52:41.038Z,3.70
2018-08-07T11:53:41.031Z,3.60
2018-08-07T11:54:41.039Z,3.10
2018-08-07T11:55:41.039Z,3.60
2018-08-07T11:56:41.045Z,3.20
2018-08-07T11:57:41.050Z,3.50
2018-08-07T11:58:41.055Z,3.10
2018-08-07T11:59:41.061Z,3.30
2018-08-07T12:00:41.193Z,3.50
2018-08-07T12:01:41.073Z,3.60
2018-08-07T12:02:41.079Z,3.30
2018-08-07T12:03:41.087Z,3.90
2018-08-07T12:04:41.088Z,3.10
2018-08-07T12:05:41.096Z,3.20
2018-08-07T12:06:41.101Z,3.40
2018-08-07T12:07:41.103Z,3.30
2018-08-07T12:08:41.108Z,3.90
2018-08-07T12:09:41.107Z,3.40
2018-08-07T12:10:41.109Z,3.40
2018-08-07T12:11:41.112Z,3.70
2018-08-07T12:12:41.113Z,3.90
2018-08-07T12:13:41.236Z,3.60
2018-08-07T12:14:41.118Z,3.20
2018-08-07T12:15:41.120Z,3.90
2018-08-07T12:16:41.123Z,3.60
2018-08-07T12:17:41.127Z,3.50
2018-08-07T12:18:41.136Z,3.90
2018-08-07T12:19:41.134Z,3.60
2018-08-07T12:20:41.144Z,3.60
2018-08-07T12:21:41.192Z,3.80
2018-08-07T12:22:41.136Z,3.70
2018-08-07T12:23:41.130Z,3.80
2018-08-07T12:24:41.130Z,3.60
2018-08-07T12:25:41.159Z,3.40
2018-08-07T12:26:41.190Z,3.60
2018-08-07T12:27:41.172Z,3.30
2018-08-07T12:28:41.140Z,3.40
2018-08-07T12:29:41.137Z,3.30
2018-08-07T12:30:41.133Z,3.40
2018-08-07T12:31:41.134Z,3.60
2018-08-07T12:32:41.131Z,3.80
2018-08-07T12:33:41.138Z,3.30
2018-08-07T12:34:41.139Z,3.50
2018-08-07T12:35:41.131Z,3.70
2018-08-07T12:36:41.136Z,3.60
2018-08-07T12:37:41.136Z,3.30
2018-08-07T12:38:41.130Z,3.30
2018-08-07T12:39:41.129Z,3.50
2018-08-07T12:40:41.232Z,3.70
2018-08-07T12:41:41.129Z,3.70
2018-08-07T12:42:41.127Z,3.50
2018-08-07T12:43:41.125Z,3.80
2018-08-07T12:44:41.125Z,3.70
2018-08-07T12:45:41.120Z,3.80
2018-08-07T12:46:41.251Z,3.70
2018-08-07T12:47:41.120Z,3.80
2018-08-07T12:48:41.126Z,3.60
2018-08-07T12:49:41.121Z,3.40
2018-08-07T12:50:41.115Z,3.80
2018-08-07T12:51:41.127Z,3.40
2018-08-07T12:52:41.113Z,3.70
2018-08-07T12:53:41.113Z,4.00
2018-08-07T12:54:41.108Z,3.70
2018-08-07T12:55:41.107Z,3.90
2018-08-07T12:56:41.109Z,3.60
2018-08-07T12:57:41.113Z,4.10
2018-08-07T12:58:41.109Z,3.40
2018-08-07T12:59:41.109Z,3.60
2018-08-07T13:00:41.156Z,4.10
2018-08-07T13:01:41.099Z,3.90
2018-08-07T13:02:41.094Z,3.60
2018-08-07T13:03:41.092Z,3.50
2018-08-07T13:04:41.102Z,3.70
2018-08-07T13:05:41.087Z,3.50
2018-08-07T13:06:41.093Z,3.40
2018-08-07T13:07:41.123Z,3.90
2018-08-07T13:08:41.083Z,4.00
2018-08-07T13:09:41.077Z,3.70
2018-08-07T13:10:41.154Z,3.60
2018-08-07T13:11:41.085Z,3.90
2018-08-07T13:12:41.071Z,3.90
2018-08-07T13:13:41.077Z,3.70
2018-08-07T13:14:41.071Z,3.50
2018-08-07T13:15:41.066Z,3.50
2018-08-07T13:16:41.071Z,4.10
2018-08-07T13:17:41.169Z,3.40
2018-08-07T13:18:41.063Z,3.70
2018-08-07T13:19:41.056Z,3.50
2018-08-07T13:20:41.052Z,3.50
2018-08-07T13:21:41.070Z,3.90
2018-08-07T13:22:41.061Z,3.60
2018-08-07T13:23:41.063Z,3.60
2018-08-07T13:24:41.041Z,4.10
2018-08-07T13:25:41.093Z,4.10
2018-08-07T13:26:41.041Z,4.10
2018-08-07T13:27:41.041Z,3.90